createdAt,value
2022-12-03T00:01:15.770Z,3.05
2022-12-03T00:06:18.233Z,3.60
2022-12-03T00:11:20.096Z,2.70
2022-12-03T00:16:21.944Z,3.20
2022-12-03T00:21:24.854Z,2.15
2022-12-03T00:26:26.995Z,3.20
2022-12-03T00:31:28.968Z,3.03
2022-12-03T00:36:33.302Z,2.15
2022-12-03T00:41:35.240Z,2.35
2022-12-03T00:46:37.161Z,2.58
2022-12-03T00:51:39.432Z,2.60
2022-12-03T00:56:41.438Z,2.38
2022-12-03T01:01:43.596Z,2.45
2022-12-03T01:06:45.625Z,1.95
2022-12-03T01:11:47.591Z,2.50
2022-12-03T01:16:49.592Z,2.05
2022-12-03T01:21:52.652Z,2.40
2022-12-03T01:26:56.362Z,2.28
2022-12-03T01:32:17.117Z,2.22
2022-12-03T01:37:20.910Z,2.03
2022-12-03T01:42:37.456Z,2.10
2022-12-03T01:47:39.598Z,1.83
2022-12-03T01:52:42.594Z,1.73
2022-12-03T01:57:47.774Z,1.92
2022-12-03T02:02:53.135Z,2.47
2022-12-03T02:07:55.496Z,1.77
2022-12-03T02:13:17.625Z,1.80
2022-12-03T02:18:19.885Z,1.92
2022-12-03T02:23:50.900Z,2.05
2022-12-03T02:28:53.066Z,2.42
2022-12-03T02:33:55.807Z,1.95
2022-12-03T02:38:58.089Z,1.30
2022-12-03T02:44:00.178Z,1.90
2022-12-03T02:49:03.556Z,1.92
2022-12-03T02:54:05.627Z,1.45
2022-12-03T02:59:07.515Z,1.77
2022-12-03T03:04:09.564Z,2.10
2022-12-03T03:09:11.611Z,1.70
2022-12-03T03:14:13.749Z,2.35
2022-12-03T03:19:15.965Z,1.52
2022-12-03T03:24:17.908Z,1.50
2022-12-03T03:29:19.878Z,1.52
2022-12-03T03:34:22.006Z,1.70
2022-12-03T03:39:24.276Z,1.17
2022-12-03T03:44:26.108Z,1.50
2022-12-03T03:49:28.522Z,1.25
2022-12-03T03:54:30.996Z,1.90
2022-12-03T03:59:33.026Z,1.58
2022-12-03T04:04:37.023Z,1.25
2022-12-03T04:09:39.344Z,1.50
2022-12-03T04:14:41.515Z,1.58
2022-12-03T04:19:43.325Z,1.73
2022-12-03T04:24:45.651Z,1.13
2022-12-03T04:29:47.966Z,1.10
2022-12-03T04:35:08.756Z,1.27
2022-12-03T04:40:31.063Z,1.30
2022-12-03T04:45:32.980Z,1.52
2022-12-03T04:50:35.188Z,1.58
2022-12-03T04:55:37.166Z,1.42
2022-12-03T05:00:39.010Z,1.40
2022-12-03T05:05:41.797Z,1.20
2022-12-03T05:10:43.732Z,1.02
2022-12-03T05:15:45.870Z,1.33
2022-12-03T05:20:53.287Z,0.95
2022-12-03T05:25:55.992Z,1.50
2022-12-03T05:30:57.838Z,1.50
2022-12-03T05:36:00.251Z,1.05
2022-12-03T05:41:02.481Z,1.20
2022-12-03T05:46:04.495Z,1.20
2022-12-03T05:51:06.545Z,1.60
2022-12-03T05:56:08.522Z,1.23
2022-12-03T06:01:10.418Z,1.33
2022-12-03T06:06:12.173Z,1.58
2022-12-03T06:11:14.427Z,1.13
2022-12-03T06:16:16.484Z,1.30
2022-12-03T06:21:18.648Z,1.00
2022-12-03T06:26:20.581Z,1.40
2022-12-03T06:31:23.388Z,1.63
2022-12-03T06:36:27.874Z,1.15
2022-12-03T06:41:29.581Z,0.90
2022-12-03T06:46:31.628Z,2.03
2022-12-03T06:51:33.568Z,2.80
2022-12-03T06:56:40.416Z,1.70
2022-12-03T07:01:46.644Z,2.33
2022-12-03T07:06:49.024Z,2.10
2022-12-03T07:11:50.823Z,2.10
2022-12-03T07:16:52.781Z,1.90
2022-12-03T07:21:54.789Z,1.77
2022-12-03T07:26:56.695Z,2.58
2022-12-03T07:31:58.702Z,2.22
2022-12-03T07:37:00.864Z,2.50
2022-12-03T07:42:03.102Z,2.25
2022-12-03T07:47:05.397Z,1.88
2022-12-03T07:52:07.584Z,1.42
2022-12-03T07:57:09.437Z,1.48
2022-12-03T08:02:11.442Z,2.25
2022-12-03T08:07:13.450Z,1.63
2022-12-03T08:12:18.236Z,2.40
2022-12-03T08:17:21.930Z,2.42
2022-12-03T08:22:23.712Z,3.47
2022-12-03T08:27:25.498Z,3.30
2022-12-03T08:32:27.801Z,3.15
2022-12-03T08:37:30.221Z,3.08
2022-12-03T08:42:42.957Z,1.88
2022-12-03T08:47:44.712Z,2.50
2022-12-03T08:52:46.607Z,2.58
2022-12-03T08:57:48.396Z,2.33
2022-12-03T09:02:52.590Z,2.80
2022-12-03T09:07:54.618Z,2.08
2022-12-03T09:12:56.865Z,2.20
2022-12-03T09:17:58.947Z,2.08
2022-12-03T09:23:00.785Z,2.13
2022-12-03T09:28:02.983Z,2.10
2022-12-03T09:33:04.786Z,2.50
2022-12-03T09:38:06.914Z,2.17
2022-12-03T09:43:09.036Z,2.20
2022-12-03T09:48:12.715Z,1.70
2022-12-03T09:53:21.047Z,2.17
2022-12-03T09:58:39.314Z,1.63
2022-12-03T10:03:49.478Z,2.15
2022-12-03T10:08:54.731Z,1.55
2022-12-03T10:13:58.616Z,1.63
2022-12-03T10:19:01.777Z,1.75
2022-12-03T10:24:23.986Z,1.50
2022-12-03T10:29:33.630Z,2.80
2022-12-03T10:34:39.201Z,3.40
2022-12-03T10:40:09.498Z,3.30
2022-12-03T10:45:24.654Z,3.45
2022-12-03T10:50:26.625Z,3.20
2022-12-03T10:55:34.347Z,4.75
2022-12-03T11:00:36.111Z,3.10
2022-12-03T11:05:38.040Z,4.25
2022-12-03T11:10:39.851Z,3.58
2022-12-03T11:15:44.420Z,3.33
2022-12-03T11:20:46.312Z,3.33
2022-12-03T11:25:50.840Z,3.15
2022-12-03T11:30:56.755Z,3.75
2022-12-03T11:36:04.928Z,3.78
2022-12-03T11:41:19.184Z,3.42
2022-12-03T11:46:27.724Z,2.20
2022-12-03T11:51:30.516Z,2.97
2022-12-03T11:56:32.674Z,2.33
2022-12-03T12:01:39.194Z,2.72
2022-12-03T12:06:43.597Z,2.88
2022-12-03T12:11:45.686Z,2.33
2022-12-03T12:16:51.929Z,1.98
2022-12-03T12:21:54.310Z,2.72
2022-12-03T12:26:57.935Z,1.63
2022-12-03T12:32:09.090Z,2.92
2022-12-03T12:37:14.082Z,2.20
2022-12-03T12:42:33.117Z,2.35
2022-12-03T12:47:38.481Z,1.90
2022-12-03T12:52:56.008Z,3.20
2022-12-03T12:58:03.484Z,2.40
2022-12-03T13:03:07.223Z,3.60
2022-12-03T13:08:23.127Z,3.42
2022-12-03T13:13:43.904Z,3.25
2022-12-03T13:18:49.025Z,2.88
2022-12-03T13:23:54.076Z,2.90
2022-12-03T13:28:58.070Z,2.42
2022-12-03T13:34:10.735Z,2.85
2022-12-03T13:39:31.824Z,2.72
2022-12-03T13:44:34.494Z,2.85
2022-12-03T13:49:36.790Z,2.60
2022-12-03T13:54:39.564Z,2.38
2022-12-03T13:59:41.398Z,2.13
2022-12-03T14:04:43.288Z,2.28
2022-12-03T14:09:45.123Z,2.13
2022-12-03T14:14:46.939Z,2.08
2022-12-03T14:19:48.943Z,2.60
2022-12-03T14:24:53.210Z,2.42
2022-12-03T14:29:55.340Z,2.28
2022-12-03T14:34:57.265Z,1.83
2022-12-03T14:39:59.265Z,1.50
2022-12-03T14:45:01.268Z,2.55
2022-12-03T14:50:05.452Z,2.00
2022-12-03T14:55:07.877Z,1.60
2022-12-03T15:00:10.430Z,1.63
2022-12-03T15:05:12.218Z,2.00
2022-12-03T15:10:14.074Z,2.58
2022-12-03T15:15:16.186Z,1.73
2022-12-03T15:20:18.541Z,1.70
2022-12-03T15:25:27.614Z,2.13
2022-12-03T15:30:29.777Z,1.77
2022-12-03T15:35:31.828Z,1.98
2022-12-03T15:40:33.633Z,2.38
2022-12-03T15:45:35.707Z,1.88
2022-12-03T15:50:40.258Z,1.77
2022-12-03T15:55:42.441Z,1.73
2022-12-03T16:00:45.562Z,1.95
2022-12-03T16:05:47.363Z,2.08
2022-12-03T16:10:49.644Z,2.13
2022-12-03T16:15:51.807Z,2.88
2022-12-03T16:20:53.878Z,2.15
2022-12-03T16:25:56.025Z,2.30
2022-12-03T16:30:57.981Z,2.47
2022-12-03T16:36:00.064Z,2.20
2022-12-03T16:41:02.504Z,2.10
2022-12-03T16:46:17.523Z,1.77
2022-12-03T16:51:19.975Z,2.70
2022-12-03T16:56:22.238Z,2.20
2022-12-03T17:01:24.387Z,2.20
2022-12-03T17:06:26.449Z,1.98
2022-12-03T17:11:28.731Z,1.77
2022-12-03T17:16:30.888Z,2.10
2022-12-03T17:21:35.011Z,3.10
2022-12-03T17:26:37.414Z,1.88
2022-12-03T17:31:42.222Z,2.10
2022-12-03T17:36:44.872Z,2.05
2022-12-03T17:41:47.219Z,2.03
2022-12-03T17:46:49.243Z,2.20
2022-12-03T17:51:51.454Z,1.80
2022-12-03T17:56:53.489Z,2.15
2022-12-03T18:01:55.486Z,2.22
2022-12-03T18:07:00.822Z,1.80
2022-12-03T18:12:04.936Z,2.00
2022-12-03T18:17:07.326Z,2.40
2022-12-03T18:22:09.544Z,2.00
2022-12-03T18:27:11.593Z,2.53
2022-12-03T18:32:27.729Z,2.33
2022-12-03T18:37:32.060Z,2.25
2022-12-03T18:42:34.124Z,2.13
2022-12-03T18:47:36.068Z,2.53
2022-12-03T18:52:38.676Z,2.92
2022-12-03T18:57:40.790Z,1.95
2022-12-03T19:08:12.763Z,2.15
2022-12-03T19:13:14.888Z,3.15
2022-12-03T19:18:17.370Z,2.70
2022-12-03T19:23:19.552Z,2.53
2022-12-03T19:28:21.710Z,2.05
2022-12-03T19:33:28.330Z,2.47
2022-12-03T19:38:31.786Z,2.70
2022-12-03T19:43:35.393Z,2.53
2022-12-03T19:48:39.272Z,2.25
2022-12-03T19:53:42.219Z,2.83
2022-12-03T19:58:46.300Z,2.50
2022-12-03T20:03:50.230Z,2.67
2022-12-03T20:08:58.735Z,2.95
2022-12-03T20:14:03.074Z,2.50
2022-12-03T20:19:07.507Z,2.42
2022-12-03T20:24:14.768Z,2.40
2022-12-03T20:29:16.756Z,2.88
2022-12-03T20:34:18.924Z,2.08
2022-12-03T20:39:20.899Z,2.97
2022-12-03T20:44:23.027Z,2.67
2022-12-03T20:49:25.239Z,2.40
2022-12-03T20:54:27.577Z,2.20
2022-12-03T20:59:29.363Z,1.88
2022-12-03T21:04:31.612Z,2.58
2022-12-03T21:09:33.476Z,2.97
2022-12-03T21:14:36.262Z,2.92
2022-12-03T21:19:38.878Z,3.00
2022-12-03T21:24:43.061Z,2.88
2022-12-03T21:29:44.876Z,2.85
2022-12-03T21:34:46.713Z,2.95
2022-12-03T21:39:48.694Z,2.78
2022-12-03T21:44:50.678Z,3.75
2022-12-03T21:49:52.793Z,3.25
2022-12-03T21:54:55.300Z,4.15
2022-12-03T21:59:57.717Z,3.60
2022-12-03T22:04:59.906Z,3.30
2022-12-03T22:10:02.136Z,3.00
2022-12-03T22:15:04.500Z,2.83
2022-12-03T22:20:07.317Z,4.07
2022-12-03T22:25:09.716Z,3.00
2022-12-03T22:30:11.847Z,2.58
2022-12-03T22:35:13.998Z,2.80
2022-12-03T22:40:16.153Z,3.05
2022-12-03T22:45:17.968Z,2.63
2022-12-03T22:50:19.860Z,2.40
2022-12-03T22:55:21.681Z,2.80
2022-12-03T23:00:33.414Z,3.45
2022-12-03T23:05:39.188Z,3.08
2022-12-03T23:10:44.131Z,3.17
2022-12-03T23:15:51.644Z,2.88
2022-12-03T23:20:55.519Z,2.60
2022-12-03T23:26:08.443Z,2.63
2022-12-03T23:31:23.845Z,2.38
2022-12-03T23:36:27.760Z,2.75
2022-12-03T23:41:29.934Z,2.53
2022-12-03T23:46:31.978Z,2.13
2022-12-03T23:51:34.126Z,2.38
2022-12-03T23:56:35.991Z,2.00
